createdAt,value
2018-12-31T00:01:09.539Z,49.91
2018-12-31T00:03:36.782Z,49.85
2018-12-31T00:06:05.629Z,50.64
2018-12-31T00:08:32.240Z,50.91
2018-12-31T00:10:58.790Z,50.86
2018-12-31T00:13:29.175Z,50.88
2018-12-31T00:15:55.743Z,50.84
2018-12-31T00:18:22.334Z,51.53
2018-12-31T00:20:48.863Z,52.49
2018-12-31T00:23:17.364Z,51.96
2018-12-31T00:25:44.038Z,51.45
2018-12-31T00:28:13.122Z,51.89
2018-12-31T00:30:39.697Z,52.45
2018-12-31T00:33:08.399Z,52.56
2018-12-31T00:35:37.533Z,52.47
2018-12-31T00:38:04.224Z,52.27
2018-12-31T00:40:30.772Z,52.97
2018-12-31T00:42:59.166Z,53.42
2018-12-31T00:45:25.894Z,54.07
2018-12-31T00:47:54.857Z,53.11
2018-12-31T00:50:21.597Z,52.83
2018-12-31T00:52:49.057Z,52.88
2018-12-31T00:55:15.853Z,52.42
2018-12-31T00:57:42.620Z,52.92
2018-12-31T01:00:12.437Z,53.87
2018-12-31T01:02:40.105Z,53.37
2018-12-31T01:05:06.788Z,53.40
2018-12-31T01:07:35.861Z,54.26
2018-12-31T01:10:02.470Z,53.72
2018-12-31T01:12:29.166Z,53.54
2018-12-31T01:14:58.376Z,53.95
2018-12-31T01:17:24.978Z,53.84
2018-12-31T01:19:52.035Z,54.03
2018-12-31T01:22:18.676Z,55.09
2018-12-31T01:24:46.183Z,54.59
2018-12-31T01:27:15.237Z,55.22
2018-12-31T01:29:41.798Z,56.32
2018-12-31T01:34:44.036Z,55.30
2018-12-31T01:37:10.758Z,55.26
2018-12-31T01:39:37.433Z,56.17
2018-12-31T01:42:03.996Z,56.60
2018-12-31T01:44:30.658Z,56.14
2018-12-31T01:46:57.339Z,56.14
2018-12-31T01:49:23.899Z,55.03
2018-12-31T01:51:50.507Z,55.31
2018-12-31T01:54:17.152Z,58.15
2018-12-31T01:56:43.902Z,58.67
2018-12-31T01:59:10.640Z,59.69
2018-12-31T02:01:37.153Z,60.99
2018-12-31T02:04:03.777Z,59.46
2018-12-31T02:06:30.470Z,57.17
2018-12-31T02:08:56.975Z,58.59
2018-12-31T02:11:26.916Z,58.39
2018-12-31T02:13:53.682Z,57.82
2018-12-31T02:16:20.557Z,57.91
2018-12-31T02:18:47.254Z,59.01
2018-12-31T02:21:19.896Z,58.64
2018-12-31T02:23:46.519Z,58.10
2018-12-31T02:26:13.749Z,58.47
2018-12-31T02:28:40.997Z,57.62
2018-12-31T02:31:07.878Z,58.51
2018-12-31T02:33:34.449Z,59.70
2018-12-31T02:36:01.094Z,58.12
2018-12-31T02:38:27.709Z,58.68
2018-12-31T02:40:54.358Z,59.40
2018-12-31T02:43:21.008Z,58.87
2018-12-31T02:45:47.604Z,59.33
2018-12-31T02:48:14.138Z,58.72
2018-12-31T02:50:41.265Z,58.34
2018-12-31T02:53:07.900Z,58.68
2018-12-31T02:55:34.488Z,59.95
2018-12-31T02:58:01.112Z,59.14
2018-12-31T03:00:27.642Z,58.48
2018-12-31T03:02:54.272Z,58.49
2018-12-31T03:05:20.916Z,59.56
2018-12-31T03:07:47.431Z,58.71
2018-12-31T03:10:14.056Z,58.46
2018-12-31T03:12:41.741Z,57.85
2018-12-31T03:15:08.291Z,59.32
2018-12-31T03:17:34.826Z,59.96
2018-12-31T03:20:01.360Z,61.00
2018-12-31T03:22:27.968Z,59.72
2018-12-31T03:24:54.600Z,59.09
2018-12-31T03:27:21.187Z,59.98
2018-12-31T03:29:47.743Z,60.28
2018-12-31T03:32:18.563Z,60.71
2018-12-31T03:34:45.143Z,60.26
2018-12-31T03:37:12.242Z,59.16
2018-12-31T03:39:38.786Z,59.77
2018-12-31T03:42:08.399Z,60.09
2018-12-31T03:44:35.112Z,59.69
2018-12-31T03:47:01.635Z,60.32
2018-12-31T03:49:28.231Z,60.61
2018-12-31T03:51:57.558Z,61.32
2018-12-31T03:54:24.096Z,60.90
2018-12-31T03:56:50.725Z,59.77
2018-12-31T03:59:17.295Z,60.24
2018-12-31T04:01:43.877Z,61.33
2018-12-31T04:04:10.437Z,60.46
2018-12-31T04:06:37.873Z,59.48
2018-12-31T04:09:04.435Z,59.30
2018-12-31T04:11:31.093Z,58.99
2018-12-31T04:13:57.628Z,60.64
2018-12-31T04:16:24.227Z,63.17
2018-12-31T04:18:50.817Z,62.42
2018-12-31T04:23:47.983Z,59.92
2018-12-31T04:26:14.567Z,62.15
2018-12-31T04:28:42.171Z,64.07
2018-12-31T04:31:08.670Z,64.79
2018-12-31T04:33:35.355Z,63.76
2018-12-31T04:36:01.970Z,62.05
2018-12-31T04:38:28.699Z,63.46
2018-12-31T04:40:55.335Z,63.06
2018-12-31T04:43:21.892Z,62.09
2018-12-31T04:45:48.457Z,60.80
2018-12-31T04:48:15.162Z,62.47
2018-12-31T04:50:42.349Z,63.68
2018-12-31T04:53:09.222Z,62.85
2018-12-31T04:55:44.047Z,61.75
2018-12-31T04:58:04.681Z,60.88
2018-12-31T05:00:31.225Z,60.88
2018-12-31T05:02:58.220Z,60.92
2018-12-31T05:05:24.746Z,59.53
2018-12-31T05:07:51.283Z,59.51
2018-12-31T05:10:17.857Z,59.93
2018-12-31T05:12:48.312Z,60.85
2018-12-31T05:15:14.851Z,60.24
2018-12-31T05:17:41.556Z,60.63
2018-12-31T05:20:08.090Z,62.16
2018-12-31T05:22:38.370Z,62.31
2018-12-31T05:25:05.200Z,61.55
2018-12-31T05:27:31.915Z,60.67
2018-12-31T05:29:58.536Z,60.27
2018-12-31T05:32:25.196Z,60.75
2018-12-31T05:34:52.180Z,61.63
2018-12-31T05:37:19.752Z,62.74
2018-12-31T05:39:46.365Z,61.77
2018-12-31T05:42:13.012Z,60.39
2018-12-31T05:44:39.584Z,59.34
2018-12-31T05:47:07.019Z,60.42
2018-12-31T05:49:33.839Z,61.28
2018-12-31T05:52:00.810Z,60.24
2018-12-31T05:54:27.515Z,60.68
2018-12-31T05:56:54.081Z,61.30
2018-12-31T05:59:20.696Z,62.19
2018-12-31T06:01:47.353Z,60.40
2018-12-31T06:04:14.202Z,61.01
2018-12-31T06:06:40.741Z,61.85
2018-12-31T06:09:07.324Z,61.53
2018-12-31T06:11:33.919Z,62.00
2018-12-31T06:14:01.239Z,61.74
2018-12-31T06:16:28.622Z,61.22
2018-12-31T06:18:55.973Z,60.81
2018-12-31T06:21:23.418Z,61.15
2018-12-31T06:23:50.029Z,61.46
2018-12-31T06:26:16.599Z,61.79
2018-12-31T06:28:43.523Z,61.78
2018-12-31T06:31:10.138Z,61.63
2018-12-31T06:33:38.612Z,60.90
2018-12-31T06:36:05.144Z,60.58
2018-12-31T06:38:31.752Z,63.18
2018-12-31T06:40:58.317Z,61.56
2018-12-31T06:43:27.997Z,63.09
2018-12-31T06:45:54.854Z,62.61
2018-12-31T06:48:21.442Z,63.43
2018-12-31T06:50:50.674Z,65.58
2018-12-31T06:53:17.233Z,63.65
2018-12-31T06:55:43.903Z,65.15
2018-12-31T06:58:10.547Z,65.39
2018-12-31T07:00:37.147Z,64.05
2018-12-31T07:03:04.694Z,62.64
2018-12-31T07:05:31.455Z,61.59
2018-12-31T07:07:58.054Z,61.13
2018-12-31T07:10:24.632Z,59.92
2018-12-31T07:12:51.692Z,60.76
2018-12-31T07:15:18.278Z,61.64
2018-12-31T07:17:45.035Z,61.06
2018-12-31T07:20:12.008Z,61.36
2018-12-31T07:22:38.639Z,62.83
2018-12-31T07:25:05.178Z,62.17
2018-12-31T07:27:31.944Z,60.69
2018-12-31T07:32:45.325Z,62.11
2018-12-31T07:35:11.919Z,60.41
2018-12-31T07:37:38.448Z,61.21
2018-12-31T07:40:05.031Z,60.18
2018-12-31T07:42:31.619Z,60.70
2018-12-31T07:45:01.997Z,62.30
2018-12-31T07:47:28.598Z,61.17
2018-12-31T07:49:55.236Z,61.63
2018-12-31T07:52:21.802Z,60.65
2018-12-31T07:54:48.803Z,61.42
2018-12-31T07:57:15.429Z,62.02
2018-12-31T07:59:42.134Z,62.42
2018-12-31T08:02:09.447Z,60.81
2018-12-31T08:04:36.088Z,61.38
2018-12-31T08:07:02.601Z,61.41
2018-12-31T08:09:29.181Z,60.99
2018-12-31T08:11:55.735Z,60.29
2018-12-31T08:14:23.759Z,60.27
2018-12-31T08:16:50.390Z,60.99
2018-12-31T08:19:17.679Z,61.37
2018-12-31T08:21:44.555Z,60.22
2018-12-31T08:24:13.739Z,60.27
2018-12-31T08:26:41.349Z,60.52
2018-12-31T08:29:07.903Z,60.66
2018-12-31T08:31:34.598Z,60.80
2018-12-31T08:34:01.639Z,60.62
2018-12-31T08:36:28.153Z,58.85
2018-12-31T08:38:54.672Z,59.07
2018-12-31T08:41:21.328Z,60.26
2018-12-31T08:43:48.057Z,59.55
2018-12-31T08:46:14.751Z,57.91
2018-12-31T08:48:41.349Z,57.73
2018-12-31T08:51:08.044Z,58.78
2018-12-31T08:53:34.579Z,58.56
2018-12-31T08:56:01.164Z,58.02
2018-12-31T08:58:27.762Z,57.69
2018-12-31T09:00:54.304Z,55.86
2018-12-31T09:03:20.921Z,56.84
2018-12-31T09:05:47.793Z,57.28
2018-12-31T09:08:14.864Z,57.23
2018-12-31T09:10:41.591Z,55.30
2018-12-31T09:13:08.178Z,56.70
2018-12-31T09:15:34.769Z,57.67
2018-12-31T09:18:01.503Z,57.11
2018-12-31T09:20:28.559Z,56.61
2018-12-31T09:22:55.189Z,56.12
2018-12-31T09:25:24.484Z,57.52
2018-12-31T09:27:51.060Z,58.31
2018-12-31T09:30:20.357Z,58.09
2018-12-31T09:32:46.928Z,56.46
2018-12-31T09:35:15.297Z,55.65
2018-12-31T09:37:41.841Z,54.94
2018-12-31T09:40:08.390Z,54.50
2018-12-31T09:42:35.003Z,55.48
2018-12-31T09:45:03.549Z,53.82
2018-12-31T09:47:30.255Z,53.87
2018-12-31T09:49:56.797Z,51.53
2018-12-31T09:52:23.408Z,50.70
2018-12-31T09:54:49.950Z,49.75
2018-12-31T09:57:16.536Z,48.45
2018-12-31T09:59:43.072Z,48.40
2018-12-31T10:02:09.713Z,45.96
2018-12-31T10:04:36.273Z,47.54
2018-12-31T10:07:02.820Z,46.30
2018-12-31T10:09:29.377Z,47.51
2018-12-31T10:11:56.291Z,46.48
2018-12-31T10:14:22.843Z,46.24
2018-12-31T10:16:49.437Z,44.52
2018-12-31T10:19:15.991Z,44.60
2018-12-31T10:21:42.642Z,43.71
2018-12-31T10:24:09.217Z,44.68
2018-12-31T10:26:35.758Z,40.59
2018-12-31T10:29:02.271Z,40.52
2018-12-31T10:31:28.813Z,40.68
2018-12-31T10:33:55.390Z,40.18
2018-12-31T10:36:21.888Z,40.69
2018-12-31T10:38:51.211Z,41.74
2018-12-31T10:41:16.704Z,39.57
2018-12-31T10:43:43.286Z,40.33
2018-12-31T10:46:13.392Z,38.61
2018-12-31T10:48:40.570Z,38.94
2018-12-31T10:51:07.128Z,38.42
2018-12-31T10:53:33.653Z,39.01
2018-12-31T10:56:02.197Z,39.92
2018-12-31T10:58:30.360Z,39.94
2018-12-31T11:00:56.953Z,39.62
2018-12-31T11:03:23.482Z,39.03
2018-12-31T11:05:57.069Z,36.48
2018-12-31T11:08:24.864Z,37.43
2018-12-31T11:10:51.384Z,36.21
2018-12-31T11:13:17.884Z,37.12
2018-12-31T11:15:48.234Z,35.41
2018-12-31T11:18:15.978Z,36.58
2018-12-31T11:20:42.524Z,36.21
2018-12-31T11:23:09.072Z,36.75
2018-12-31T11:25:35.655Z,36.50
2018-12-31T11:28:02.183Z,36.27
2018-12-31T11:30:28.795Z,37.05
2018-12-31T11:32:55.308Z,35.69
2018-12-31T11:35:21.844Z,35.55
2018-12-31T11:37:48.415Z,35.98
2018-12-31T11:40:14.966Z,35.84
2018-12-31T11:42:41.586Z,35.99
2018-12-31T11:45:08.417Z,34.56
2018-12-31T11:47:35.035Z,34.94
2018-12-31T11:50:01.605Z,35.51
2018-12-31T11:52:28.132Z,35.20
2018-12-31T11:54:54.705Z,33.47
2018-12-31T11:57:21.276Z,33.80
2018-12-31T11:59:47.816Z,35.62
2018-12-31T12:02:14.417Z,34.14
2018-12-31T12:04:40.928Z,33.71
2018-12-31T12:07:07.553Z,32.88
2018-12-31T12:09:34.059Z,34.93
2018-12-31T12:12:00.636Z,33.44
2018-12-31T12:14:28.542Z,32.44
2018-12-31T12:16:55.047Z,33.07
2018-12-31T12:19:22.087Z,33.26
2018-12-31T12:21:48.650Z,34.66
2018-12-31T12:24:15.165Z,34.48
2018-12-31T12:26:44.746Z,33.10
2018-12-31T12:29:11.281Z,33.43
2018-12-31T12:31:37.818Z,32.66
2018-12-31T12:34:04.372Z,34.24
2018-12-31T12:36:34.027Z,33.98
2018-12-31T12:39:00.573Z,34.24
2018-12-31T12:41:27.105Z,33.74
2018-12-31T12:43:53.995Z,34.90
2018-12-31T12:46:20.547Z,35.57
2018-12-31T12:48:47.135Z,34.52
2018-12-31T12:51:13.692Z,34.76
2018-12-31T12:53:40.216Z,34.66
2018-12-31T12:56:06.804Z,34.94
2018-12-31T12:58:33.689Z,33.08
2018-12-31T13:01:00.282Z,33.51
2018-12-31T13:03:26.819Z,33.42
2018-12-31T13:05:53.376Z,34.11
2018-12-31T13:08:19.916Z,33.55
2018-12-31T13:10:47.149Z,33.73
2018-12-31T13:13:14.201Z,35.11
2018-12-31T13:15:41.084Z,35.50
2018-12-31T13:18:07.617Z,35.52
2018-12-31T13:20:34.503Z,35.88
2018-12-31T13:23:01.069Z,36.04
2018-12-31T13:25:27.608Z,36.49
2018-12-31T13:27:54.455Z,35.97
2018-12-31T13:30:21.059Z,35.84
2018-12-31T13:32:47.628Z,35.88
2018-12-31T13:35:14.142Z,35.53
2018-12-31T13:37:45.886Z,35.45
2018-12-31T13:40:12.557Z,35.27
2018-12-31T13:42:39.084Z,34.54
2018-12-31T13:45:05.613Z,35.30
2018-12-31T13:47:42.635Z,35.64
2018-12-31T13:50:09.181Z,35.80
2018-12-31T13:52:36.079Z,36.67
2018-12-31T13:55:02.628Z,36.53
2018-12-31T13:57:32.987Z,36.28
2018-12-31T13:59:59.493Z,36.87
2018-12-31T14:02:26.014Z,36.27
2018-12-31T14:04:52.625Z,36.71
2018-12-31T14:07:21.834Z,36.34
2018-12-31T14:09:48.347Z,36.13
2018-12-31T14:12:14.904Z,36.87
2018-12-31T14:14:41.434Z,36.71
2018-12-31T14:17:08.019Z,36.87
2018-12-31T14:19:34.645Z,36.14
2018-12-31T14:22:01.702Z,35.61
2018-12-31T14:24:28.212Z,36.30
2018-12-31T14:27:00.493Z,36.65
2018-12-31T14:29:23.076Z,36.87
2018-12-31T14:31:49.591Z,36.79
2018-12-31T14:34:16.130Z,37.15
2018-12-31T14:36:42.950Z,37.27
2018-12-31T14:39:14.066Z,37.71
2018-12-31T14:41:40.556Z,38.58
2018-12-31T14:44:07.117Z,38.31
2018-12-31T14:46:33.647Z,37.12
2018-12-31T14:49:00.188Z,38.96
2018-12-31T14:51:26.772Z,38.89
2018-12-31T14:53:53.287Z,38.86
2018-12-31T14:56:19.818Z,38.94
2018-12-31T14:58:46.336Z,38.96
2018-12-31T15:01:18.047Z,38.74
2018-12-31T15:03:50.072Z,39.26
2018-12-31T15:06:11.430Z,38.12
2018-12-31T15:08:38.114Z,38.88
2018-12-31T15:11:05.052Z,38.94
2018-12-31T15:13:31.595Z,38.34
2018-12-31T15:15:58.146Z,38.22
2018-12-31T15:18:25.189Z,39.49
2018-12-31T15:20:51.657Z,38.60
2018-12-31T15:23:18.620Z,38.58
2018-12-31T15:25:45.203Z,39.35
2018-12-31T15:28:12.370Z,39.07
2018-12-31T15:30:38.871Z,38.93
2018-12-31T15:33:05.421Z,38.17
2018-12-31T15:35:31.948Z,38.81
2018-12-31T15:37:59.777Z,38.67
2018-12-31T15:40:26.885Z,39.08
2018-12-31T15:42:53.411Z,38.92
2018-12-31T15:45:19.949Z,38.20
2018-12-31T15:47:46.550Z,39.56
2018-12-31T15:50:13.082Z,39.82
2018-12-31T15:52:39.647Z,40.17
2018-12-31T15:55:06.179Z,40.44
2018-12-31T15:57:32.686Z,40.77
2018-12-31T15:59:59.236Z,40.49
2018-12-31T16:02:26.008Z,40.47
2018-12-31T16:04:52.515Z,41.12
2018-12-31T16:07:19.212Z,41.29
2018-12-31T16:09:45.754Z,41.47
2018-12-31T16:12:12.288Z,41.67
2018-12-31T16:14:38.806Z,41.95
2018-12-31T16:17:05.507Z,41.92
2018-12-31T16:19:32.030Z,42.19
2018-12-31T16:21:58.536Z,42.39
2018-12-31T16:24:25.111Z,42.58
2018-12-31T16:26:51.634Z,42.18
2018-12-31T16:29:19.234Z,42.36
2018-12-31T16:31:45.872Z,42.36
2018-12-31T16:34:12.531Z,42.49
2018-12-31T16:36:39.086Z,43.06
2018-12-31T16:39:05.583Z,43.28
2018-12-31T16:41:32.118Z,42.98
2018-12-31T16:43:58.649Z,42.87
2018-12-31T16:46:25.185Z,43.09
2018-12-31T16:48:54.993Z,43.27
2018-12-31T16:51:21.492Z,43.66
2018-12-31T16:53:48.033Z,43.36
2018-12-31T16:56:14.611Z,43.83
2018-12-31T16:58:52.009Z,44.90
2018-12-31T17:01:19.843Z,44.75
2018-12-31T17:03:46.365Z,44.88
2018-12-31T17:06:12.919Z,45.14
2018-12-31T17:08:39.494Z,45.33
2018-12-31T17:11:06.224Z,45.53
2018-12-31T17:13:35.214Z,44.84
2018-12-31T17:16:02.231Z,44.69
2018-12-31T17:18:28.760Z,45.19
2018-12-31T17:20:55.262Z,44.93
2018-12-31T17:23:21.874Z,45.43
2018-12-31T17:25:48.390Z,45.75
2018-12-31T17:28:15.050Z,45.85
2018-12-31T17:30:41.925Z,45.75
2018-12-31T17:33:08.450Z,45.70
2018-12-31T17:35:34.997Z,46.28
2018-12-31T17:38:01.571Z,46.40
2018-12-31T17:40:28.091Z,46.59
2018-12-31T17:42:54.660Z,46.80
2018-12-31T17:45:23.285Z,47.34
2018-12-31T17:47:49.896Z,47.07
2018-12-31T17:50:16.485Z,47.60
2018-12-31T17:52:42.993Z,47.56
2018-12-31T17:55:09.566Z,47.29
2018-12-31T17:57:36.115Z,47.46
2018-12-31T18:00:03.748Z,47.66
2018-12-31T18:02:32.555Z,47.74
2018-12-31T18:04:59.075Z,47.28
2018-12-31T18:07:29.897Z,47.31
2018-12-31T18:10:02.697Z,47.35
2018-12-31T18:12:29.352Z,47.55
2018-12-31T18:14:55.891Z,47.78
2018-12-31T18:17:22.457Z,48.00
2018-12-31T18:19:50.676Z,47.99
2018-12-31T18:22:17.461Z,48.53
2018-12-31T18:24:43.983Z,49.36
2018-12-31T18:27:12.551Z,49.52
2018-12-31T18:29:40.412Z,50.20
2018-12-31T18:32:06.934Z,49.35
2018-12-31T18:34:33.434Z,48.95
2018-12-31T18:37:00.051Z,48.51
2018-12-31T18:39:26.584Z,48.97
2018-12-31T18:41:53.079Z,48.45
2018-12-31T18:44:20.510Z,48.01
2018-12-31T18:46:47.316Z,48.19
2018-12-31T18:49:13.976Z,48.92
2018-12-31T18:51:40.534Z,48.75
2018-12-31T18:54:07.020Z,48.70
2018-12-31T18:56:33.545Z,48.00
2018-12-31T18:59:00.084Z,48.05
2018-12-31T19:01:26.644Z,48.34
2018-12-31T19:03:53.290Z,49.13
2018-12-31T19:06:20.887Z,49.25
2018-12-31T19:08:47.442Z,48.87
2018-12-31T19:11:13.962Z,49.18
2018-12-31T19:13:41.297Z,49.27
2018-12-31T19:16:07.802Z,48.71
2018-12-31T19:18:34.384Z,48.52
2018-12-31T19:21:00.998Z,48.59
2018-12-31T19:23:27.520Z,48.47
2018-12-31T19:25:54.039Z,47.32
2018-12-31T19:28:21.054Z,47.54
2018-12-31T19:30:51.383Z,47.78
2018-12-31T19:33:17.987Z,48.04
2018-12-31T19:35:44.602Z,49.11
2018-12-31T19:38:11.388Z,50.08
2018-12-31T19:40:38.695Z,49.81
2018-12-31T19:43:09.200Z,49.44
2018-12-31T19:45:35.730Z,49.04
2018-12-31T19:48:02.264Z,48.50
2018-12-31T19:50:31.504Z,48.33
2018-12-31T19:52:58.056Z,48.78
2018-12-31T19:55:24.581Z,49.00
2018-12-31T19:57:51.401Z,49.20
2018-12-31T20:00:20.603Z,48.48
2018-12-31T20:02:47.115Z,48.86
2018-12-31T20:05:13.672Z,49.02
2018-12-31T20:07:40.219Z,49.54
2018-12-31T20:10:08.497Z,50.08
2018-12-31T20:12:35.064Z,49.69
2018-12-31T20:15:01.699Z,49.67
2018-12-31T20:17:28.211Z,49.36
2018-12-31T20:19:54.946Z,48.99
2018-12-31T20:22:21.538Z,48.80
2018-12-31T20:24:48.168Z,48.87
2018-12-31T20:27:15.064Z,48.91
2018-12-31T20:29:41.625Z,48.51
2018-12-31T20:32:10.680Z,48.52
2018-12-31T20:34:37.223Z,49.38
2018-12-31T20:37:03.874Z,49.20
2018-12-31T20:39:30.439Z,49.00
2018-12-31T20:41:59.216Z,48.69
2018-12-31T20:44:25.910Z,47.91
2018-12-31T20:46:52.420Z,48.46
2018-12-31T20:49:19.044Z,49.53
2018-12-31T20:51:45.642Z,48.92
2018-12-31T20:54:12.202Z,49.36
2018-12-31T20:56:39.110Z,49.02
2018-12-31T20:59:05.925Z,49.98
2018-12-31T21:01:34.680Z,50.14
2018-12-31T21:04:01.505Z,49.59
2018-12-31T21:06:28.044Z,50.52
2018-12-31T21:08:54.625Z,50.45
2018-12-31T21:11:21.850Z,50.17
2018-12-31T21:13:48.445Z,50.15
2018-12-31T21:16:14.997Z,50.31
2018-12-31T21:18:41.586Z,50.00
2018-12-31T21:21:11.114Z,50.29
2018-12-31T21:23:37.657Z,50.10
2018-12-31T21:26:04.483Z,49.61
2018-12-31T21:28:31.123Z,49.38
2018-12-31T21:30:57.649Z,49.29
2018-12-31T21:33:24.551Z,48.93
2018-12-31T21:35:54.518Z,49.06
2018-12-31T21:38:23.740Z,49.21
2018-12-31T21:40:50.875Z,48.59
2018-12-31T21:43:17.381Z,48.74
2018-12-31T21:45:43.890Z,49.09
2018-12-31T21:48:10.569Z,49.17
2018-12-31T21:50:37.102Z,49.43
2018-12-31T21:53:03.665Z,48.83
2018-12-31T21:55:30.212Z,49.03
2018-12-31T21:57:56.772Z,49.25
2018-12-31T22:00:23.560Z,49.76
2018-12-31T22:02:56.854Z,49.83
2018-12-31T22:05:18.519Z,49.73
2018-12-31T22:07:45.043Z,49.96
2018-12-31T22:10:11.607Z,49.72
2018-12-31T22:12:38.420Z,49.83
2018-12-31T22:15:05.622Z,50.22
2018-12-31T22:17:32.202Z,50.26
2018-12-31T22:19:58.787Z,50.19
2018-12-31T22:22:25.506Z,49.73
2018-12-31T22:24:52.939Z,50.17
2018-12-31T22:27:19.463Z,50.70
2018-12-31T22:29:46.345Z,50.41
2018-12-31T22:32:12.958Z,50.15
2018-12-31T22:34:39.510Z,50.29
2018-12-31T22:37:06.000Z,50.15
2018-12-31T22:39:32.985Z,49.84
2018-12-31T22:42:01.259Z,50.09
2018-12-31T22:44:27.796Z,49.99
2018-12-31T22:46:54.372Z,50.09
2018-12-31T22:49:20.990Z,50.02
2018-12-31T22:51:50.691Z,50.11
2018-12-31T22:54:17.268Z,50.08
2018-12-31T22:56:45.043Z,50.27
2018-12-31T22:59:12.206Z,50.08
2018-12-31T23:01:38.964Z,50.75
2018-12-31T23:04:05.561Z,50.98
2018-12-31T23:06:32.141Z,50.97
2018-12-31T23:08:58.692Z,50.64
2018-12-31T23:11:25.226Z,50.67
2018-12-31T23:13:52.192Z,50.95
2018-12-31T23:16:18.885Z,50.92
2018-12-31T23:18:45.412Z,50.96
2018-12-31T23:21:11.969Z,51.17
2018-12-31T23:23:38.622Z,51.23
2018-12-31T23:26:05.234Z,51.39
2018-12-31T23:28:31.775Z,51.29
2018-12-31T23:30:58.319Z,51.21
2018-12-31T23:33:24.816Z,51.15
2018-12-31T23:35:51.345Z,51.11
2018-12-31T23:38:18.285Z,51.13
2018-12-31T23:40:44.924Z,51.05
2018-12-31T23:43:11.575Z,51.13
2018-12-31T23:45:38.550Z,51.41
2018-12-31T23:48:05.149Z,51.70
2018-12-31T23:50:31.767Z,51.79
2018-12-31T23:55:45.498Z,51.28
2018-12-31T23:58:12.058Z,51.26
